This is the latest recevied weather packets stored in our database for station/object WX7FGZ-7. If no packets are shown the sender has not sent any weather packets the latest 10 day(s).
| Time | Temp. | Humidity | Pressure | Rain* | Wind** | Luminosity | Snow |
|---|---|---|---|---|---|---|---|
| 1777563330 | 18.33° C | 27% | 1017.3 hPa | 0 mm | - | - | - |
| 1777562736 | 17.22° C | 29% | 1017.4 hPa | 0 mm | - | - | - |
| 1777562686 | 17.22° C | 29% | 1017.5 hPa | 0 mm | - | - | - |
| 1777562437 | 17.22° C | 29% | 1017.5 hPa | 0 mm | - | - | - |
| 1777562146 | 16.67° C | 29% | 1017.6 hPa | 0 mm | - | - | - |
| 1777561557 | 16.11° C | 31% | 1017.6 hPa | 0 mm | - | - | - |
| 1777560950 | 16.11° C | 31% | 1017.7 hPa | 0 mm | - | - | - |
| 1777560926 | 15.56° C | 32% | 1017.6 hPa | 0 mm | - | - | - |
| 1777560626 | 15.56° C | 32% | 1017.6 hPa | 0 mm | - | - | - |
| 1777560326 | 15.56° C | 33% | 1017.8 hPa | 0 mm | - | - | - |
| 1777559132 | 13.33° C | 36% | 1017.5 hPa | 0 mm | - | - | - |
| 1777558826 | 13.33° C | 36% | 1017.5 hPa | 0 mm | - | - | - |
| 1777557645 | 11.11° C | 38% | 1016.5 hPa | 0 mm | - | - | - |
| 1777557332 | 11.11° C | 38% | 1016.5 hPa | 0 mm | - | - | - |
| 1777557273 | 10.56° C | 38% | 1016.4 hPa | 0 mm | - | - | - |
| 1777557026 | 10.56° C | 38% | 1016.4 hPa | 0 mm | - | - | - |
| 1777556726 | 10° C | 40% | 1016.6 hPa | 0 mm | - | - | - |
| 1777556426 | 9.44° C | 40% | 1016.6 hPa | 0 mm | - | - | - |
| 1777556144 | 7.78° C | 43% | 1016.6 hPa | 0 mm | - | - | - |
| 1777555826 | 7.78° C | 43% | 1016.6 hPa | 0 mm | - | - | - |
| 1777552907 | 6.11° C | 45% | 1016.3 hPa | 0 mm | - | - | - |
| 1777552827 | 5.56° C | 45% | 1016.4 hPa | 0 mm | - | - | - |
| 1777552526 | 6.11° C | 45% | 1016.3 hPa | 0 mm | - | - | - |
| 1777552505 | 6.11° C | 45% | 1016.4 hPa | 0 mm | - | - | - |
| 1777552307 | 5.56° C | 46% | 1016.5 hPa | 0 mm | - | - | - |
* Rain latest hour (hover to see other rain measurements)
** Current wind speed in m/s (hover to see current wind gust speed)